Time;durP1;ratioP1;P1;durP2;ratioP2;P2;SDS_P1;SDS_P2;PMS_P1;PMS_P2;Temp;Humidity;BMP_temperature;BMP_pressure;BME280_temperature;BME280_humidity;BME280_pressure;Samples;Min_cycle;Max_cycle;Signal;HPM_P1;HPM_P2
2021/05/20 00:01:43;;;;;;;1.27;0.72;;;;;;;11.97;82.80;99016.34;1726365;82;21526;-73
2021/05/20 00:04:09;;;;;;;3.35;0.82;;;;;;;11.98;82.68;99016.68;1703330;81;21040;-74
2021/05/20 00:06:36;;;;;;;1.67;1.17;;;;;;;11.97;82.56;99007.09;1708873;82;23198;-74
2021/05/20 00:09:04;;;;;;;3.15;1.90;;;;;;;11.97;82.46;99008.41;1721830;82;20982;-74
2021/05/20 00:11:32;;;;;;;4.45;2.20;;;;;;;11.95;82.32;99017.81;1747862;82;20949;-74
2021/05/20 00:13:59;;;;;;;3.05;1.70;;;;;;;11.94;82.29;99015.33;1747696;82;21049;-74
2021/05/20 00:16:25;;;;;;;2.67;1.55;;;;;;;11.95;82.24;99023.10;1719263;82;21067;-74
2021/05/20 00:18:52;;;;;;;2.45;1.00;;;;;;;11.96;82.13;99028.72;1729735;82;21730;-74
2021/05/20 00:21:19;;;;;;;1.62;0.88;;;;;;;11.96;82.06;99029.22;1712586;82;21042;-74
2021/05/20 00:23:48;;;;;;;0.65;0.53;;;;;;;11.98;82.03;99031.23;1746663;82;21535;-74
2021/05/20 00:26:15;;;;;;;0.55;0.50;;;;;;;11.98;81.94;99041.81;1748774;81;21010;-74
2021/05/20 00:28:42;;;;;;;0.98;0.60;;;;;;;11.97;81.92;99042.81;1747889;82;21017;-74
2021/05/20 00:31:09;;;;;;;0.95;0.50;;;;;;;11.95;81.83;99035.51;1747987;82;21733;-74
2021/05/20 00:33:37;;;;;;;0.82;0.57;;;;;;;11.95;81.87;99040.30;1746734;82;21005;-75
2021/05/20 00:36:06;;;;;;;0.60;0.60;;;;;;;11.96;81.89;99043.28;1730260;82;21029;-74
2021/05/20 00:38:33;;;;;;;0.93;0.68;;;;;;;11.98;81.85;99051.08;1704003;82;21155;-74
2021/05/20 00:41:02;;;;;;;1.75;0.60;;;;;;;11.98;81.77;99052.41;1724959;82;21002;-74
2021/05/20 00:43:28;;;;;;;1.12;0.60;;;;;;;11.97;81.78;99041.48;1747934;81;21728;-74
2021/05/20 00:45:55;;;;;;;1.22;0.53;;;;;;;11.97;81.75;99044.13;1747332;82;20975;-74
2021/05/20 00:48:22;;;;;;;0.82;0.60;;;;;;;11.95;81.64;99048.23;1742569;82;21009;-74
2021/05/20 00:50:48;;;;;;;0.75;0.60;;;;;;;11.96;81.65;99049.06;1704593;82;21043;-75
2021/05/20 00:53:17;;;;;;;1.02;0.60;;;;;;;11.96;81.50;99045.09;1748206;80;21455;-74
2021/05/20 00:55:45;;;;;;;2.05;0.60;;;;;;;11.97;81.49;99049.43;1748195;82;21783;-74
2021/05/20 00:58:11;;;;;;;0.90;0.60;;;;;;;11.99;81.43;99051.41;1744707;81;20989;-74
2021/05/20 01:00:38;;;;;;;0.85;0.68;;;;;;;12.00;81.34;99046.45;1723546;82;21051;-74
2021/05/20 01:03:05;;;;;;;0.78;0.70;;;;;;;12.00;81.13;99054.38;1711671;83;21018;-74
2021/05/20 01:05:32;;;;;;;2.05;0.62;;;;;;;11.99;81.08;99043.47;1683780;85;21219;-74
2021/05/20 01:07:59;;;;;;;1.02;0.65;;;;;;;11.99;81.03;99045.62;1683888;85;21833;-74
2021/05/20 01:10:25;;;;;;;2.15;0.70;;;;;;;11.99;80.92;99043.47;1690357;83;21053;-74
2021/05/20 01:12:52;;;;;;;1.27;0.70;;;;;;;11.99;80.93;99052.23;1700508;82;20985;-74
2021/05/20 01:15:22;;;;;;;3.55;0.70;;;;;;;12.00;80.77;99057.03;1727665;81;21069;-74
2021/05/20 01:17:56;;;;;;;2.45;0.80;;;;;;;11.96;80.59;99043.77;1725351;83;21038;-74
2021/05/20 01:20:33;;;;;;;2.75;0.85;;;;;;;11.95;80.53;99048.23;1726214;83;21753;-74
2021/05/20 01:23:13;;;;;;;0.60;0.57;;;;;;;11.93;80.46;99047.58;1726209;83;21002;-74
2021/05/20 01:25:47;;;;;;;2.25;0.70;;;;;;;11.93;80.48;99049.41;1714149;82;20966;-74
2021/05/20 01:28:18;;;;;;;0.85;0.62;;;;;;;11.91;80.32;99044.28;1735640;82;20992;-74
2021/05/20 01:30:45;;;;;;;1.62;0.70;;;;;;;11.91;80.29;99045.60;1746357;82;21597;-74
2021/05/20 01:33:11;;;;;;;0.50;0.50;;;;;;;11.90;80.15;99051.89;1749037;82;21829;-73
2021/05/20 01:35:39;;;;;;;1.50;0.70;;;;;;;11.90;80.09;99049.73;1738383;82;21058;-77
2021/05/20 01:38:41;;;;;;;1.70;0.68;;;;;;;11.89;80.06;99047.59;1747536;82;21045;-76
2021/05/20 01:40:37;;;;;;;1.30;0.68;;;;;;;11.89;80.02;99052.05;1726872;82;21627;-76
2021/05/20 01:43:04;;;;;;;0.68;0.60;;;;;;;11.88;80.02;99049.08;1741134;82;21629;-77
2021/05/20 01:45:31;;;;;;;1.57;0.70;;;;;;;11.86;80.03;99047.06;1750090;82;21599;-77
2021/05/20 01:47:59;;;;;;;1.65;0.70;;;;;;;11.83;80.03;99054.84;1750053;82;21592;-77
2021/05/20 01:50:27;;;;;;;1.50;0.70;;;;;;;11.81;80.02;99050.70;1750103;82;21093;-77
2021/05/20 01:52:54;;;;;;;2.37;1.05;;;;;;;11.81;80.08;99049.38;1745659;81;20998;-77
2021/05/20 01:55:20;;;;;;;2.58;0.82;;;;;;;11.78;80.08;99050.52;1745665;82;21509;-77
2021/05/20 01:57:47;;;;;;;3.55;0.70;;;;;;;11.79;80.12;99050.02;1746307;82;22659;-77
2021/05/20 02:00:15;;;;;;;0.68;0.68;;;;;;;11.77;80.02;99052.80;1749304;82;20998;-78
2021/05/20 02:02:42;;;;;;;0.70;0.60;;;;;;;11.75;79.97;99053.46;1747649;81;21014;-78
2021/05/20 02:05:10;;;;;;;1.27;0.70;;;;;;;11.75;80.03;99049.49;1750257;82;21056;-77
2021/05/20 02:07:39;;;;;;;13.55;0.90;;;;;;;11.76;80.05;99055.11;1750509;82;21051;-78
2021/05/20 02:10:06;;;;;;;2.50;0.72;;;;;;;11.75;80.04;99057.42;1750707;82;21820;-77
2021/05/20 02:12:33;;;;;;;1.80;0.70;;;;;;;11.71;80.04;99051.64;1748288;81;20992;-78
2021/05/20 02:15:00;;;;;;;0.80;0.60;;;;;;;11.72;80.03;99057.76;1735086;82;21044;-78
2021/05/20 02:17:26;;;;;;;1.15;0.80;;;;;;;11.72;80.06;99056.44;1750534;82;21106;-79
2021/05/20 02:19:52;;;;;;;2.08;0.93;;;;;;;11.72;80.09;99063.05;1725194;82;20986;-76
2021/05/20 02:22:19;;;;;;;1.22;0.80;;;;;;;11.72;80.08;99059.08;1750450;82;22526;-78
2021/05/20 02:24:46;;;;;;;1.45;0.90;;;;;;;11.70;80.15;99059.75;1745014;81;21060;-77
2021/05/20 02:27:13;;;;;;;0.90;0.80;;;;;;;11.68;80.30;99065.20;1749745;81;20970;-76
2021/05/20 02:29:39;;;;;;;1.67;0.80;;;;;;;11.65;80.40;99062.85;1749252;82;21073;-77
2021/05/20 02:32:06;;;;;;;1.37;0.90;;;;;;;11.63;80.48;99067.98;1725149;82;21074;-77
2021/05/20 02:34:33;;;;;;;2.08;0.80;;;;;;;11.59;80.60;99061.37;1750343;82;22509;-77
2021/05/20 02:37:01;;;;;;;3.42;1.10;;;;;;;11.58;80.63;99078.19;1750367;81;20966;-77
2021/05/20 02:39:28;;;;;;;1.20;0.80;;;;;;;11.57;80.76;99054.06;1741326;81;21045;-78
2021/05/20 02:41:54;;;;;;;2.22;1.00;;;;;;;11.57;80.84;99062.82;1719538;82;21002;-77
2021/05/20 02:44:20;;;;;;;2.10;0.88;;;;;;;11.56;80.81;99057.70;1736247;82;20977;-77
2021/05/20 02:46:47;;;;;;;1.85;1.00;;;;;;;11.55;80.82;99057.37;1750552;82;21741;-77
2021/05/20 02:49:13;;;;;;;1.98;0.90;;;;;;;11.56;80.79;99069.10;1750480;82;21458;-77
2021/05/20 02:51:40;;;;;;;2.37;0.98;;;;;;;11.57;80.72;99054.89;1749718;81;21399;-77
2021/05/20 02:54:07;;;;;;;2.12;0.90;;;;;;;11.59;80.60;99064.84;1748890;82;21579;-77
2021/05/20 02:56:33;;;;;;;2.10;0.82;;;;;;;11.62;80.45;99063.68;1740940;82;21504;-77
2021/05/20 02:59:01;;;;;;;1.55;0.90;;;;;;;11.63;80.37;99062.69;1744809;82;21689;-77
2021/05/20 03:01:28;;;;;;;2.92;1.30;;;;;;;11.65;80.20;99071.28;1750472;81;21093;-77
2021/05/20 03:03:55;;;;;;;3.60;0.93;;;;;;;11.64;80.08;99065.17;1748506;81;20962;-77
2021/05/20 03:06:21;;;;;;;2.25;1.00;;;;;;;11.65;80.09;99062.03;1745106;82;21050;-77
2021/05/20 03:08:49;;;;;;;2.15;1.05;;;;;;;11.64;80.05;99067.81;1748930;82;21012;-77
2021/05/20 03:11:17;;;;;;;1.37;0.90;;;;;;;11.63;80.15;99063.52;1750653;82;22253;-77
2021/05/20 03:13:43;;;;;;;2.37;1.12;;;;;;;11.61;80.26;99068.14;1750401;82;21006;-77
2021/05/20 03:16:11;;;;;;;2.20;1.00;;;;;;;11.59;80.43;99062.69;1748050;81;21010;-78
2021/05/20 03:18:38;;;;;;;2.10;1.20;;;;;;;11.58;80.46;99066.30;1750447;82;21548;-77
2021/05/20 03:21:06;;;;;;;2.80;0.90;;;;;;;11.58;80.50;99068.47;1725299;82;21069;-77
2021/05/20 03:23:33;;;;;;;2.85;1.00;;;;;;;11.58;80.51;99076.41;1750540;82;21762;-77
2021/05/20 03:26:00;;;;;;;1.75;1.12;;;;;;;11.58;80.49;99076.88;1749222;81;21026;-78
2021/05/20 03:28:26;;;;;;;5.78;1.45;;;;;;;11.58;80.50;99075.09;1730066;82;21548;-77
2021/05/20 03:30:54;;;;;;;1.10;0.88;;;;;;;11.58;80.32;99079.05;1734541;82;21023;-78
2021/05/20 03:33:20;;;;;;;1.02;0.93;;;;;;;11.62;80.29;99075.09;1749196;82;21600;-78
2021/05/20 03:35:47;;;;;;;1.40;1.20;;;;;;;11.66;80.21;99080.38;1739281;81;22269;-77
2021/05/20 03:38:13;;;;;;;3.98;1.10;;;;;;;11.65;79.69;99081.37;1744535;82;21010;-78
2021/05/20 03:40:39;;;;;;;3.10;1.20;;;;;;;11.65;79.65;99081.86;1750634;82;21030;-78
2021/05/20 03:43:06;;;;;;;2.33;1.20;;;;;;;11.65;79.57;99081.37;1749835;81;21109;-77
2021/05/20 03:45:32;;;;;;;2.30;1.30;;;;;;;11.67;79.46;99073.27;1745248;81;20989;-78
2021/05/20 03:48:00;;;;;;;2.52;1.30;;;;;;;11.68;79.38;99082.39;1747855;82;22672;-77
2021/05/20 03:50:26;;;;;;;1.62;1.20;;;;;;;11.69;79.18;99078.75;1752998;80;21161;-77
2021/05/20 03:52:53;;;;;;;1.55;1.10;;;;;;;11.70;79.08;99083.55;1770891;80;20992;-78
2021/05/20 03:55:20;;;;;;;3.10;1.10;;;;;;;11.74;78.84;99086.20;1739052;82;21021;-77
2021/05/20 03:57:48;;;;;;;3.15;1.10;;;;;;;11.79;78.85;99097.63;1734196;81;21055;-77
2021/05/20 04:00:17;;;;;;;1.35;1.00;;;;;;;11.82;78.50;99085.43;1747465;81;22373;-77
2021/05/20 04:02:43;;;;;;;2.30;1.12;;;;;;;11.85;78.44;99100.97;1750235;82;21048;-77
2021/05/20 04:05:12;;;;;;;3.52;1.20;;;;;;;11.88;78.22;99105.47;1745856;81;21078;-77
2021/05/20 04:07:38;;;;;;;1.25;1.10;;;;;;;11.91;78.06;99106.45;1748221;82;21043;-77
2021/05/20 04:10:07;;;;;;;2.27;1.00;;;;;;;11.91;77.72;99104.30;1744625;81;21007;-76
2021/05/20 04:12:33;;;;;;;1.98;1.20;;;;;;;11.91;77.60;99120.19;1748249;81;21790;-80
2021/05/20 04:15:00;;;;;;;3.15;1.60;;;;;;;11.91;77.45;99105.13;1750646;81;21546;-80
2021/05/20 04:17:26;;;;;;;2.42;1.72;;;;;;;11.91;77.23;99107.78;1750453;82;21041;-78
2021/05/20 04:19:55;;;;;;;4.60;2.27;;;;;;;11.92;76.98;99101.99;1750561;81;20962;-75
2021/05/20 04:22:21;;;;;;;3.42;2.10;;;;;;;11.94;76.90;99108.77;1750451;82;20976;-73
2021/05/20 04:24:48;;;;;;;7.50;2.45;;;;;;;11.95;76.43;99105.62;1749858;81;21733;-72
2021/05/20 04:27:14;;;;;;;4.87;2.50;;;;;;;11.95;76.18;99121.01;1751690;80;21541;-73
2021/05/20 04:29:41;;;;;;;5.08;2.40;;;;;;;11.96;76.12;99123.16;1736982;81;21572;-75
2021/05/20 04:32:08;;;;;;;5.62;2.33;;;;;;;11.98;76.05;99124.67;1739777;81;21097;-77
2021/05/20 04:34:35;;;;;;;4.90;2.20;;;;;;;12.01;76.00;99135.42;1731651;82;21109;-76
2021/05/20 04:37:06;;;;;;;2.80;1.80;;;;;;;12.01;75.96;99142.05;1722962;81;22320;-76
2021/05/20 04:39:31;;;;;;;3.75;2.02;;;;;;;11.99;75.75;99126.33;1715121;82;21025;-78
2021/05/20 04:41:57;;;;;;;3.33;1.67;;;;;;;11.99;75.80;99135.59;1730466;81;21089;-77
2021/05/20 04:44:24;;;;;;;3.10;2.02;;;;;;;12.00;75.46;99131.13;1731007;81;21033;-81
2021/05/20 04:46:52;;;;;;;2.95;2.10;;;;;;;12.00;75.31;99136.42;1727364;81;21660;-83
2021/05/20 04:49:18;;;;;;;3.65;2.17;;;;;;;12.01;75.24;99141.55;1731591;82;21555;-77
2021/05/20 04:51:45;;;;;;;2.40;1.60;;;;;;;12.05;75.19;99131.45;1731690;82;20994;-76
2021/05/20 04:54:12;;;;;;;1.57;1.25;;;;;;;12.10;74.95;99133.63;1711952;82;21474;-76
2021/05/20 04:56:38;;;;;;;3.95;1.50;;;;;;;12.14;74.59;99142.39;1730599;82;21563;-76
2021/05/20 04:59:05;;;;;;;4.58;1.90;;;;;;;12.16;74.23;99144.41;1726871;82;21037;-76
2021/05/20 05:01:33;;;;;;;2.87;1.95;;;;;;;12.18;74.12;99147.72;1687182;84;22342;-76
2021/05/20 05:03:59;;;;;;;3.70;2.25;;;;;;;12.21;73.83;99169.89;1702987;83;21030;-76
2021/05/20 05:06:26;;;;;;;3.75;2.12;;;;;;;12.21;73.66;99173.03;1703553;83;21109;-76
2021/05/20 05:08:53;;;;;;;4.00;1.77;;;;;;;12.21;73.74;99163.77;1695203;84;21005;-76
2021/05/20 05:11:20;;;;;;;2.92;1.70;;;;;;;12.23;73.74;99170.55;1673159;84;21097;-77
2021/05/20 05:13:46;;;;;;;2.10;1.20;;;;;;;12.24;73.38;99177.50;1700131;82;22314;-78
2021/05/20 05:16:13;;;;;;;2.27;1.22;;;;;;;12.25;73.32;99183.13;1700005;82;21498;-77
2021/05/20 05:18:40;;;;;;;2.95;1.07;;;;;;;12.26;73.06;99180.84;1701816;83;21062;-77
2021/05/20 05:21:06;;;;;;;3.27;1.57;;;;;;;12.27;73.01;99187.78;1702234;83;21059;-77
2021/05/20 05:23:33;;;;;;;2.87;1.02;;;;;;;12.28;73.03;99202.67;1702238;84;21157;-77
2021/05/20 05:25:59;;;;;;;1.12;0.90;;;;;;;12.28;73.14;99192.58;1705131;82;21671;-77
2021/05/20 05:28:25;;;;;;;2.17;1.00;;;;;;;12.29;72.95;99194.23;1705325;82;21474;-77
2021/05/20 05:30:52;;;;;;;1.98;0.98;;;;;;;12.28;73.04;99191.26;1746956;81;21528;-77
2021/05/20 05:33:21;;;;;;;2.45;1.10;;;;;;;12.26;72.82;99194.08;1703296;83;21082;-78
2021/05/20 05:35:48;;;;;;;1.57;1.22;;;;;;;12.28;72.86;99197.88;1699447;84;21053;-72
2021/05/20 05:38:15;;;;;;;2.15;0.95;;;;;;;12.30;72.83;99202.52;1688409;84;21751;-75
2021/05/20 05:40:44;;;;;;;1.32;1.15;;;;;;;12.32;72.71;99204.50;1735983;82;21472;-73
2021/05/20 05:43:10;;;;;;;3.33;1.22;;;;;;;12.34;72.57;99210.45;1700460;83;21070;-77
2021/05/20 05:45:37;;;;;;;1.82;1.10;;;;;;;12.39;72.35;99209.48;1701991;82;21081;-76
2021/05/20 05:48:05;;;;;;;1.82;1.10;;;;;;;12.44;72.16;99204.52;1701289;83;21054;-75
2021/05/20 05:50:32;;;;;;;3.85;1.22;;;;;;;12.48;71.99;99206.37;1700730;82;22356;-77
2021/05/20 05:53:02;;;;;;;3.27;1.40;;;;;;;12.53;71.69;99198.25;1700896;82;20945;-76
2021/05/20 05:55:27;;;;;;;4.05;1.40;;;;;;;12.58;71.43;99206.55;1703253;82;21055;-75
2021/05/20 05:57:53;;;;;;;3.98;1.40;;;;;;;12.65;70.92;99204.58;1674206;84;21104;-76
2021/05/20 06:00:22;;;;;;;2.33;1.20;;;;;;;12.73;70.75;99200.59;1708644;82;21030;-76
2021/05/20 06:02:49;;;;;;;3.05;1.30;;;;;;;12.80;70.55;99206.91;1716598;82;21862;-77
2021/05/20 06:05:15;;;;;;;2.10;1.10;;;;;;;12.85;70.18;99187.38;1740376;80;20951;-73
2021/05/20 06:07:44;;;;;;;3.47;1.25;;;;;;;12.93;69.94;99195.30;1742618;80;21644;-72
2021/05/20 06:10:11;;;;;;;1.98;1.02;;;;;;;13.00;69.80;99188.35;1716496;83;21089;-73
2021/05/20 06:12:39;;;;;;;3.08;1.15;;;;;;;13.09;69.19;99187.36;1742931;80;21090;-73
2021/05/20 06:15:08;;;;;;;2.00;0.90;;;;;;;13.19;69.36;99201.80;1697574;82;21779;-73
2021/05/20 06:17:38;;;;;;;2.05;0.90;;;;;;;13.30;68.95;99196.64;1731432;82;21076;-73
2021/05/20 06:20:06;;;;;;;2.37;1.10;;;;;;;13.42;69.12;99200.13;1740510;80;20980;-72
2021/05/20 06:22:32;;;;;;;1.77;0.95;;;;;;;13.50;68.44;99210.37;1743884;80;21153;-71
2021/05/20 06:24:59;;;;;;;3.00;1.00;;;;;;;13.52;67.79;99208.40;1743066;82;21072;-73
2021/05/20 06:27:28;;;;;;;2.00;0.90;;;;;;;13.56;67.93;99202.57;1716847;83;21786;-74
2021/05/20 06:29:56;;;;;;;3.05;1.15;;;;;;;13.66;67.31;99204.53;1713369;82;21026;-76
2021/05/20 06:32:23;;;;;;;1.07;0.90;;;;;;;13.75;67.15;99206.17;1724290;82;21474;-74
2021/05/20 06:34:50;;;;;;;3.08;0.98;;;;;;;13.80;66.51;99198.18;1715989;83;21102;-75
2021/05/20 06:37:17;;;;;;;2.72;1.10;;;;;;;13.85;66.05;99200.66;1716684;83;21066;-75
2021/05/20 06:39:44;;;;;;;2.22;0.90;;;;;;;13.92;66.04;99195.50;1743288;80;21737;-76
2021/05/20 06:42:11;;;;;;;1.95;0.90;;;;;;;14.02;65.58;99199.61;1678768;85;21599;-75
2021/05/20 06:44:37;;;;;;;1.57;0.90;;;;;;;14.13;65.17;99198.90;1742427;80;21070;-76
2021/05/20 06:47:04;;;;;;;2.45;0.80;;;;;;;14.21;64.70;99202.34;1716585;83;20971;-71
2021/05/20 06:49:33;;;;;;;2.58;1.00;;;;;;;14.28;64.86;99198.00;1717477;83;21144;-72
2021/05/20 06:51:59;;;;;;;1.98;1.07;;;;;;;14.40;64.39;99197.09;1739195;82;21717;-72
2021/05/20 06:54:25;;;;;;;1.60;0.90;;;;;;;14.52;64.06;99193.56;1717197;83;20990;-73
2021/05/20 06:56:58;;;;;;;1.62;1.02;;;;;;;14.62;62.62;99186.19;1743878;80;21093;-75
2021/05/20 07:02:08;;;;;;;5.50;0.80;;;;;;;14.59;61.48;99198.52;1739601;82;21040;-72
2021/05/20 07:04:35;;;;;;;3.02;0.90;;;;;;;14.56;62.31;99190.37;1742596;82;21789;-72
2021/05/20 07:07:03;;;;;;;2.87;1.00;;;;;;;14.63;61.86;99193.66;1739740;82;20999;-73
2021/05/20 07:09:34;;;;;;;2.33;1.40;;;;;;;14.69;61.91;99196.95;1724794;83;21038;-72
2021/05/20 07:12:01;;;;;;;1.50;0.80;;;;;;;14.77;61.82;99183.61;1748448;82;21071;-73
2021/05/20 07:14:27;;;;;;;1.47;0.93;;;;;;;14.76;60.42;99173.45;1740309;82;21032;-73
2021/05/20 07:16:54;;;;;;;1.50;0.80;;;;;;;14.78;60.33;99170.64;1749890;82;22535;-73
2021/05/20 07:19:21;;;;;;;1.50;0.80;;;;;;;14.84;61.00;99174.72;1749936;82;21021;-72
2021/05/20 07:21:48;;;;;;;2.85;1.00;;;;;;;14.93;60.67;99168.02;1749912;82;21030;-73
2021/05/20 07:24:16;;;;;;;2.33;1.00;;;;;;;14.99;59.33;99201.37;1738690;81;21561;-72
2021/05/20 07:26:42;;;;;;;6.33;0.88;;;;;;;15.06;59.12;99175.72;1740034;81;20985;-75
2021/05/20 07:29:10;;;;;;;3.45;1.55;;;;;;;15.13;58.62;99180.63;1749752;80;22389;-74
2021/05/20 07:31:39;;;;;;;4.50;1.30;;;;;;;15.18;58.74;99182.76;1739854;81;21048;-75
2021/05/20 07:34:06;;;;;;;4.47;1.40;;;;;;;15.28;59.78;99185.98;1746923;81;21021;-74
2021/05/20 07:36:32;;;;;;;1.90;1.15;;;;;;;15.39;58.64;99202.02;1731380;82;20994;-73
2021/05/20 07:38:59;;;;;;;2.45;0.90;;;;;;;15.46;58.87;99200.28;1731463;82;21073;-73
2021/05/20 07:41:28;;;;;;;2.05;0.80;;;;;;;15.58;58.30;99209.97;1731615;82;21830;-73
2021/05/20 07:43:54;;;;;;;2.47;0.78;;;;;;;15.69;57.91;99202.89;1731045;82;20970;-73
2021/05/20 07:46:21;;;;;;;1.15;0.70;;;;;;;15.72;57.01;99215.32;1720802;82;21053;-73
2021/05/20 07:48:47;;;;;;;5.78;1.25;;;;;;;15.76;57.09;99227.78;1731606;82;21101;-74
2021/05/20 07:51:14;;;;;;;3.47;1.30;;;;;;;15.82;54.62;99214.22;1731637;82;20970;-74
2021/05/20 07:53:40;;;;;;;1.75;0.80;;;;;;;15.86;55.48;99223.01;1731574;82;22203;-73
2021/05/20 07:56:07;;;;;;;0.98;0.80;;;;;;;15.93;55.27;99232.43;1731289;81;21065;-74
2021/05/20 07:58:35;;;;;;;1.42;0.70;;;;;;;15.98;54.61;99232.69;1741707;81;21489;-74
2021/05/20 08:01:02;;;;;;;1.77;0.70;;;;;;;16.03;55.07;99217.82;1724858;82;21105;-74
2021/05/20 08:03:37;;;;;;;2.42;0.70;;;;;;;16.17;55.14;99210.81;1729705;82;21057;-74
2021/05/20 08:08:56;;;;;;;2.10;0.80;;;;;;;16.49;53.43;99222.86;1721027;82;21101;-74
2021/05/20 08:11:07;;;;;;;2.33;0.80;;;;;;;16.57;53.10;99224.09;1718617;83;21081;-76
2021/05/20 08:13:34;;;;;;;1.22;0.80;;;;;;;16.59;52.39;99231.39;1729961;82;21053;-74
2021/05/20 08:16:01;;;;;;;1.75;0.80;;;;;;;16.59;52.38;99216.72;1733925;81;21042;-73
2021/05/20 08:18:29;;;;;;;1.37;0.78;;;;;;;16.57;52.67;99228.09;1729649;82;21737;-75
2021/05/20 08:20:58;;;;;;;1.67;0.68;;;;;;;16.54;53.06;99257.80;1722330;82;21081;-73
2021/05/20 08:23:25;;;;;;;5.33;0.80;;;;;;;16.58;52.80;99272.39;1731542;82;20989;-72
2021/05/20 08:25:51;;;;;;;0.70;0.53;;;;;;;16.67;51.63;99241.63;1731557;82;21005;-73
2021/05/20 08:28:18;;;;;;;3.92;0.70;;;;;;;16.72;51.07;99246.75;1730037;81;21078;-73
2021/05/20 08:30:45;;;;;;;1.22;0.68;;;;;;;16.73;51.93;99264.91;1728534;81;21862;-74
2021/05/20 08:33:12;;;;;;;1.12;0.80;;;;;;;16.77;52.49;99258.99;1740040;80;21058;-74
2021/05/20 08:35:40;;;;;;;3.55;0.72;;;;;;;16.93;52.72;99277.95;1743682;80;20971;-74
2021/05/20 08:38:06;;;;;;;1.57;0.80;;;;;;;17.12;50.27;99281.83;1744661;80;21082;-74
2021/05/20 08:40:33;;;;;;;1.57;0.75;;;;;;;17.13;50.94;99270.14;1744472;82;21030;-74
2021/05/20 08:42:59;;;;;;;1.85;0.80;;;;;;;17.17;50.14;99260.72;1743543;81;21729;-73
2021/05/20 08:45:28;;;;;;;3.42;0.90;;;;;;;17.20;51.30;99273.70;1739144;80;21484;-74
2021/05/20 08:47:56;;;;;;;1.47;0.80;;;;;;;17.30;51.03;99255.52;1741760;80;21057;-75
2021/05/20 08:50:25;;;;;;;2.83;0.88;;;;;;;17.38;50.33;99274.59;1743320;81;21088;-76
2021/05/20 08:52:53;;;;;;;2.45;0.80;;;;;;;17.37;49.88;99272.91;1742804;82;20977;-75
2021/05/20 08:55:22;;;;;;;2.47;1.10;;;;;;;17.27;49.12;99273.74;1744280;81;21550;-73
2021/05/20 08:57:50;;;;;;;2.25;0.80;;;;;;;17.20;49.85;99276.37;1720845;81;21060;-76
2021/05/20 09:00:20;;;;;;;2.47;1.00;;;;;;;17.12;49.70;99259.16;1742554;82;21555;-74
2021/05/20 09:02:47;;;;;;;3.85;0.80;;;;;;;16.99;49.44;99282.53;1743883;81;21975;-77
2021/05/20 09:05:19;;;;;;;4.35;0.98;;;;;;;16.98;51.17;99280.85;1744320;80;21002;-77
2021/05/20 09:07:51;;;;;;;1.00;0.70;;;;;;;17.10;49.95;99270.53;1743017;82;21773;-78
2021/05/20 09:10:21;;;;;;;4.17;1.00;;;;;;;17.34;51.14;99271.45;1738984;81;21488;-78
2021/05/20 09:13:02;;;;;;;3.25;1.10;;;;;;;17.61;48.91;99294.38;1712112;82;21057;-75
2021/05/20 09:15:33;;;;;;;1.70;0.93;;;;;;;17.69;48.74;99311.12;1724465;80;21476;-77
2021/05/20 09:18:17;;;;;;;1.17;0.80;;;;;;;17.62;48.50;99289.34;1740250;82;21046;-77
2021/05/20 09:20:50;;;;;;;1.77;0.90;;;;;;;17.57;48.17;99309.14;1744251;81;22274;-77
2021/05/20 09:23:21;;;;;;;2.83;1.02;;;;;;;17.57;47.82;99291.28;1743742;81;21133;-78
2021/05/20 09:25:49;;;;;;;1.27;0.82;;;;;;;17.58;47.73;99297.44;1742318;81;21054;-78
2021/05/20 09:28:18;;;;;;;2.25;0.90;;;;;;;17.56;49.00;99296.27;1714142;82;21047;-78
2021/05/20 09:30:45;;;;;;;2.42;0.80;;;;;;;17.55;47.99;99301.81;1706433;84;21502;-78
2021/05/20 09:33:16;;;;;;;1.87;1.00;;;;;;;17.55;48.25;99292.47;1717126;82;22371;-77
2021/05/20 09:35:51;;;;;;;1.67;0.80;;;;;;;17.56;48.62;99294.94;1744240;82;21457;-77
2021/05/20 09:38:20;;;;;;;2.92;0.93;;;;;;;17.60;48.52;99298.89;1743676;82;21590;-78
2021/05/20 09:40:56;;;;;;;5.05;0.90;;;;;;;17.67;49.43;99297.63;1729520;83;21114;-78
2021/05/20 09:43:31;;;;;;;5.37;0.98;;;;;;;17.78;49.15;99304.30;1747008;81;20978;-78
2021/05/20 09:46:01;;;;;;;1.60;0.80;;;;;;;17.86;48.69;99311.66;1723388;82;21767;-76
2021/05/20 09:48:35;;;;;;;3.15;0.90;;;;;;;17.92;48.24;99295.34;1744421;81;21153;-78
2021/05/20 09:51:02;;;;;;;2.02;1.10;;;;;;;17.99;48.66;99301.56;1744448;82;20971;-76
2021/05/20 09:53:29;;;;;;;4.00;1.00;;;;;;;18.05;49.05;99306.14;1739838;82;21030;-77
2021/05/20 09:55:59;;;;;;;2.00;1.02;;;;;;;18.10;46.67;99295.67;1744174;80;21113;-78
2021/05/20 09:58:31;;;;;;;2.52;1.10;;;;;;;18.12;48.05;99288.79;1739164;82;22321;-78
2021/05/20 10:00:59;;;;;;;2.05;1.00;;;;;;;18.17;47.33;99293.05;1696007;83;21069;-78
2021/05/20 10:03:28;;;;;;;1.85;1.00;;;;;;;18.19;47.60;99305.70;1716059;83;21044;-80
2021/05/20 10:05:57;;;;;;;2.30;0.90;;;;;;;18.29;47.47;99304.83;1716095;83;21059;-78
2021/05/20 10:08:24;;;;;;;1.72;1.00;;;;;;;18.47;47.14;99320.34;1701684;83;21517;-77
2021/05/20 10:10:54;;;;;;;1.92;1.00;;;;;;;18.64;44.91;99299.45;1681453;84;21847;-77
2021/05/20 10:13:24;;;;;;;3.55;1.00;;;;;;;18.75;45.29;99292.21;1682055;84;21082;-77
2021/05/20 10:15:55;;;;;;;4.35;1.07;;;;;;;18.84;44.94;99297.17;1699127;84;21046;-79
2021/05/20 10:18:26;;;;;;;3.62;1.00;;;;;;;19.02;45.01;99303.81;1700986;84;21047;-73
2021/05/20 10:21:04;;;;;;;1.03;0.80;;;;;;;19.04;45.57;99296.41;1701423;84;20999;-75
2021/05/20 10:23:28;;;;;;;1.47;1.10;;;;;;;19.16;45.81;99308.98;1700533;84;22324;-74
2021/05/20 10:25:56;;;;;;;2.77;0.90;;;;;;;19.31;45.18;99314.69;1700989;84;21003;-75
2021/05/20 10:28:25;;;;;;;3.67;1.02;;;;;;;19.34;45.58;99311.08;1694195;84;20986;-75
2021/05/20 10:30:53;;;;;;;1.85;0.80;;;;;;;19.40;45.52;99296.05;1705992;82;21523;-75
2021/05/20 10:33:25;;;;;;;1.62;1.00;;;;;;;19.55;43.98;99293.16;1697672;84;21030;-75
2021/05/20 10:35:54;;;;;;;1.47;1.00;;;;;;;19.55;43.34;99289.14;1701264;84;21799;-76
2021/05/20 10:38:32;;;;;;;2.17;0.90;;;;;;;19.56;44.96;99299.67;1694661;84;21050;-76
2021/05/20 10:41:20;;;;;;;1.72;0.75;;;;;;;19.63;42.70;99292.98;1673006;85;21075;-76
2021/05/20 10:43:53;;;;;;;4.53;0.90;;;;;;;19.58;43.56;99287.41;1672836;85;21127;-75
2021/05/20 10:46:20;;;;;;;3.30;1.07;;;;;;;19.59;43.08;99294.41;1685903;84;21039;-75
2021/05/20 10:48:54;;;;;;;2.80;0.85;;;;;;;19.56;43.22;99326.46;1698604;84;22562;-74
2021/05/20 10:51:24;;;;;;;3.17;1.10;;;;;;;19.47;43.24;99310.77;1699902;84;21048;-75
2021/05/20 10:54:07;;;;;;;2.05;0.93;;;;;;;19.51;43.90;99317.38;1701187;84;21063;-72
2021/05/20 10:56:42;;;;;;;3.27;1.00;;;;;;;19.70;44.45;99305.36;1701169;84;21024;-73
2021/05/20 10:59:34;;;;;;;2.15;1.10;;;;;;;19.96;43.00;99309.02;1701224;84;21098;-73
2021/05/20 11:02:01;;;;;;;2.45;0.95;;;;;;;20.12;44.22;99309.94;1703241;82;22556;-73
2021/05/20 11:04:38;;;;;;;1.72;0.95;;;;;;;20.51;44.73;99318.42;1712505;82;21118;-73
2021/05/20 11:07:06;;;;;;;2.08;0.90;;;;;;;20.81;43.54;99323.25;1731084;81;21439;-75
2021/05/20 11:09:45;;;;;;;2.27;1.05;;;;;;;20.91;42.49;99326.82;1720972;81;21044;-75
2021/05/20 11:12:15;;;;;;;2.45;1.00;;;;;;;20.75;41.01;99347.76;1712771;82;21112;-76
2021/05/20 11:14:41;;;;;;;3.00;1.05;;;;;;;20.36;42.06;99336.58;1731402;82;22593;-75
2021/05/20 11:17:31;;;;;;;1.92;1.00;;;;;;;20.03;42.80;99328.61;1731744;82;21029;-74
2021/05/20 11:20:27;;;;;;;1.35;1.20;;;;;;;19.90;43.83;99324.09;1731591;82;21086;-74
2021/05/20 11:23:21;;;;;;;2.95;1.10;;;;;;;19.77;43.62;99336.66;1721827;82;21011;-74
2021/05/20 11:26:06;;;;;;;2.65;0.90;;;;;;;19.63;44.51;99331.83;1699544;84;21059;-75
2021/05/20 11:28:42;;;;;;;2.10;1.10;;;;;;;19.60;44.01;99334.93;1705555;82;21795;-74
2021/05/20 11:31:10;;;;;;;4.25;1.05;;;;;;;19.64;44.02;99344.19;1714804;82;21041;-73
2021/05/20 11:34:36;;;;;;;1.72;0.70;;;;;;;19.60;43.33;99350.48;1731967;82;21037;-72
2021/05/20 11:36:12;;;;;;;1.98;1.20;;;;;;;19.55;42.40;99349.41;1704367;82;20985;-73
2021/05/20 11:38:55;;;;;;;1.70;1.00;;;;;;;19.50;42.98;99345.19;1731938;82;21046;-73
2021/05/20 11:41:22;;;;;;;2.80;0.82;;;;;;;19.51;42.20;99351.68;1727571;82;21796;-74
2021/05/20 11:44:15;;;;;;;1.50;0.98;;;;;;;19.40;42.94;99351.77;1731778;82;21498;-73
2021/05/20 11:46:47;;;;;;;2.60;0.98;;;;;;;19.34;42.76;99357.11;1731837;82;21491;-72